Pagrindinis puslapis
METAR-TAF:

METAR-TAF

Oro uostai :

Berlevåg, Norvegija

platuma: 70-52N, ilguma: 029-02E, Aukštis: 1 m

Dabartinis oras

Ataskaita buvo paskelbta 14 minutes, ne 19:50 UTC
Vėjas 7 kt iš Vakarų/Šiaurės Vakarų
Temperatūra 7°C
Drėgmė 76%
Slėgis 1010 hPa
Matomumas 10 km arba daugiau
nėra debesų žemiau 1500 m ir nėra kamuolinių lietaus debesų

METAR: ENBV 171950Z 30007KT CAVOK 07/03 Q1010

Laikas: 22:04 (20:04 UTC)

Prognozė

Ataskaita buvo paskelbta 3 valandos ir 4 minutes, ne 17:00 UTC
Prognozė galioja nuo 17 metu 18 UTC su 17 metu 21 UTC
Vėjas 9 kt iš Šiaurės/Šiaurės Vakarų
Matomumas 10 km arba daugiau
Su prošvaistėmis ne aukštis 5000 ft

TAF: ENBV 171700Z 1718/1721 34009KT 9999 BKN050

Orai ataskaitas ir orų prognozės (METAR, TAF).

turimą stotys yra geltonos ir raudonos taškus žemėlapyje.

Perkelti pele per norėdami pamatyti stoties vardą.

Tada spustelėkite, norėdami matyti oro stebėjimo ir prognozės.

Norėdami pakeisti žemėlapį: spustelėkite ant žalios mygtukų su juodo kryžiaus žemyn,; žalią mygtuką su brūkšneliu, jei norite nutolinti; arba žalių rodyklių gretimoms žemėlapius.


METAR-TAF: